createdAt,value
2022-11-10T00:01:48.250Z,50.35
2022-11-10T00:05:11.044Z,48.65
2022-11-10T00:08:33.064Z,51.47
2022-11-10T00:11:55.149Z,51.28
2022-11-10T00:15:46.029Z,51.88
2022-11-10T00:19:09.648Z,52.90
2022-11-10T00:22:32.156Z,52.22
2022-11-10T00:25:54.000Z,55.15
2022-11-10T00:29:15.773Z,57.05
2022-11-10T00:32:37.585Z,55.60
2022-11-10T00:36:02.968Z,55.25
2022-11-10T00:39:24.956Z,56.40
2022-11-10T00:42:46.682Z,57.83
2022-11-10T00:46:08.493Z,59.70
2022-11-10T00:49:30.608Z,60.80
2022-11-10T00:52:53.947Z,56.35
2022-11-10T00:56:15.930Z,60.92
2022-11-10T00:59:37.934Z,59.17
2022-11-10T01:02:59.961Z,58.28
2022-11-10T01:06:22.768Z,61.97
2022-11-10T01:09:45.865Z,59.45
2022-11-10T01:13:07.555Z,59.97
2022-11-10T01:16:31.258Z,59.03
2022-11-10T01:19:53.154Z,59.38
2022-11-10T01:23:14.763Z,54.53
2022-11-10T01:26:37.794Z,52.85
2022-11-10T01:29:59.748Z,55.40
2022-11-10T01:33:21.747Z,51.67
2022-11-10T01:36:43.693Z,52.78
2022-11-10T01:40:06.155Z,56.30
2022-11-10T01:43:30.002Z,56.38
2022-11-10T01:46:51.765Z,54.33
2022-11-10T01:50:13.841Z,58.75
2022-11-10T01:53:39.757Z,53.95
2022-11-10T01:57:05.197Z,61.13
2022-11-10T02:00:50.965Z,61.40
2022-11-10T02:04:17.630Z,61.15
2022-11-10T02:07:40.118Z,59.85
2022-11-10T02:11:02.071Z,57.78
2022-11-10T02:14:24.399Z,59.22
2022-11-10T02:17:47.938Z,59.22
2022-11-10T02:21:11.273Z,54.55
2022-11-10T02:24:33.508Z,58.55
2022-11-10T02:27:55.043Z,56.45
2022-11-10T02:31:16.801Z,59.63
2022-11-10T02:34:38.557Z,59.58
2022-11-10T02:38:01.730Z,61.63
2022-11-10T02:41:23.784Z,62.17
2022-11-10T02:44:45.393Z,63.33
2022-11-10T02:48:07.633Z,65.32
2022-11-10T02:51:29.336Z,65.35
2022-11-10T02:54:52.207Z,68.28
2022-11-10T02:58:13.710Z,67.22
2022-11-10T03:01:35.625Z,68.28
2022-11-10T03:04:57.281Z,71.68
2022-11-10T03:08:19.064Z,69.65
2022-11-10T03:11:42.144Z,66.63
2022-11-10T03:15:03.957Z,67.50
2022-11-10T03:18:25.848Z,66.80
2022-11-10T03:21:47.533Z,64.50
2022-11-10T03:25:11.185Z,65.13
2022-11-10T03:28:34.475Z,64.85
2022-11-10T03:31:56.106Z,62.45
2022-11-10T03:35:18.019Z,63.08
2022-11-10T03:38:39.605Z,60.40
2022-11-10T03:42:01.360Z,63.05
2022-11-10T03:45:24.720Z,56.15
2022-11-10T03:48:52.035Z,58.35
2022-11-10T03:52:15.709Z,61.10
2022-11-10T03:55:37.469Z,57.22
2022-11-10T03:58:59.182Z,61.72
2022-11-10T04:02:22.561Z,60.97
2022-11-10T04:06:02.345Z,65.10
2022-11-10T04:09:24.376Z,69.17
2022-11-10T04:13:04.895Z,71.93
2022-11-10T04:16:29.111Z,71.95
2022-11-10T04:20:00.176Z,70.68
2022-11-10T04:23:56.681Z,70.90
2022-11-10T04:27:23.019Z,70.75
2022-11-10T04:31:12.893Z,72.30
2022-11-10T04:34:40.000Z,53.80
2022-11-10T04:38:10.394Z,70.97
2022-11-10T04:41:36.549Z,72.93
2022-11-10T04:45:00.786Z,75.13
2022-11-10T04:48:33.607Z,74.57
2022-11-10T04:51:58.134Z,73.70
2022-11-10T04:55:27.905Z,79.72
2022-11-10T04:59:00.963Z,76.73
2022-11-10T05:02:27.824Z,77.50
2022-11-10T05:05:55.376Z,79.50
2022-11-10T05:09:22.795Z,79.73
2022-11-10T05:12:46.263Z,77.25
2022-11-10T05:16:08.964Z,83.80
2022-11-10T05:19:30.907Z,80.55
2022-11-10T05:23:16.863Z,84.10
2022-11-10T05:26:38.712Z,84.93
2022-11-10T05:30:02.105Z,85.35
2022-11-10T05:33:24.195Z,87.05
2022-11-10T05:36:46.477Z,87.93
2022-11-10T05:40:09.766Z,88.38
2022-11-10T05:43:31.469Z,87.97
2022-11-10T05:46:54.669Z,91.72
2022-11-10T05:50:17.225Z,89.95
2022-11-10T05:53:39.329Z,91.13
2022-11-10T05:57:01.052Z,90.13
2022-11-10T06:00:24.863Z,93.47
2022-11-10T06:03:52.677Z,95.85
2022-11-10T06:07:14.849Z,97.22
2022-11-10T06:10:38.019Z,96.05
2022-11-10T06:14:01.043Z,98.18
2022-11-10T06:17:22.857Z,100.88
2022-11-10T06:20:47.439Z,97.75
2022-11-10T06:24:11.080Z,95.57
2022-11-10T06:27:33.559Z,97.38
2022-11-10T06:30:58.678Z,99.88
2022-11-10T06:34:20.521Z,95.85
2022-11-10T06:37:43.589Z,95.50
2022-11-10T06:41:05.429Z,97.85
2022-11-10T06:44:27.252Z,94.30
2022-11-10T06:47:49.356Z,96.68
2022-11-10T06:51:11.328Z,94.97
2022-11-10T06:54:34.518Z,96.60
2022-11-10T06:57:56.620Z,95.28
2022-11-10T07:01:22.472Z,95.80
2022-11-10T07:04:44.581Z,95.53
2022-11-10T07:08:08.397Z,93.35
2022-11-10T07:11:31.785Z,91.28
2022-11-10T07:14:53.493Z,91.45
2022-11-10T07:18:15.652Z,91.20
2022-11-10T07:21:37.728Z,88.75
2022-11-10T07:24:59.627Z,86.25
2022-11-10T07:28:28.117Z,83.90
2022-11-10T07:31:50.060Z,87.05
2022-11-10T07:35:12.809Z,83.63
2022-11-10T07:38:35.136Z,86.15
2022-11-10T07:41:57.970Z,87.07
2022-11-10T07:45:21.499Z,86.50
2022-11-10T07:48:43.674Z,82.85
2022-11-10T07:52:05.854Z,82.40
2022-11-10T07:55:27.454Z,79.93
2022-11-10T07:58:49.162Z,82.32
2022-11-10T08:02:12.785Z,74.72
2022-11-10T08:05:35.782Z,76.40
2022-11-10T08:08:57.796Z,74.78
2022-11-10T08:12:19.651Z,75.30
2022-11-10T08:15:42.473Z,73.82
2022-11-10T08:19:05.868Z,72.63
2022-11-10T08:22:27.943Z,69.93
2022-11-10T08:25:52.932Z,70.13
2022-11-10T08:29:14.697Z,66.63
2022-11-10T08:32:37.167Z,68.07
2022-11-10T08:36:03.030Z,64.90
2022-11-10T08:39:38.736Z,64.55
2022-11-10T08:43:01.755Z,61.20
2022-11-10T08:46:23.224Z,63.40
2022-11-10T08:49:44.648Z,62.50
2022-11-10T08:53:13.662Z,59.88
2022-11-10T08:56:35.426Z,64.95
2022-11-10T08:59:57.427Z,89.18
2022-11-10T09:03:20.875Z,71.35
2022-11-10T09:06:42.924Z,63.50
2022-11-10T09:10:07.836Z,62.65
2022-11-10T09:13:30.959Z,62.20
2022-11-10T09:16:53.013Z,61.67
2022-11-10T09:20:15.001Z,59.20
2022-11-10T09:23:36.656Z,59.50
2022-11-10T09:26:59.770Z,59.30
2022-11-10T09:30:21.348Z,58.97
2022-11-10T09:33:43.130Z,58.78
2022-11-10T09:37:05.179Z,57.78
2022-11-10T09:40:33.132Z,57.03
2022-11-10T09:44:04.022Z,57.50
2022-11-10T09:47:56.111Z,57.17
2022-11-10T09:51:21.080Z,43.50
2022-11-10T09:54:46.706Z,56.85
2022-11-10T09:58:13.128Z,56.92
2022-11-10T10:01:43.936Z,55.92
2022-11-10T10:05:27.733Z,58.67
2022-11-10T10:09:04.378Z,60.65
2022-11-10T10:12:46.326Z,57.83
2022-11-10T10:16:17.344Z,52.75
2022-11-10T10:19:48.267Z,51.33
2022-11-10T10:23:19.702Z,50.25
2022-11-10T10:26:48.784Z,47.92
2022-11-10T10:30:14.999Z,47.42
2022-11-10T10:33:37.104Z,47.80
2022-11-10T10:37:00.382Z,47.38
2022-11-10T10:40:23.941Z,47.58
2022-11-10T10:43:49.921Z,47.33
2022-11-10T10:47:11.931Z,47.08
2022-11-10T10:50:35.708Z,45.55
2022-11-10T10:53:58.805Z,46.85
2022-11-10T10:57:23.967Z,43.33
2022-11-10T11:00:47.305Z,46.15
2022-11-10T11:04:31.135Z,45.05
2022-11-10T11:07:56.699Z,49.45
2022-11-10T11:11:19.911Z,44.53
2022-11-10T11:14:46.020Z,46.63
2022-11-10T11:18:15.655Z,45.88
2022-11-10T11:21:40.690Z,40.13
2022-11-10T11:25:12.272Z,39.95
2022-11-10T11:28:44.784Z,38.20
2022-11-10T11:32:24.827Z,38.72
2022-11-10T11:35:51.404Z,30.02
2022-11-10T11:39:28.366Z,37.78
2022-11-10T11:43:03.425Z,35.63
2022-11-10T11:46:36.002Z,38.17
2022-11-10T11:50:15.186Z,34.72
2022-11-10T11:53:50.392Z,36.00
2022-11-10T11:57:28.231Z,33.92
2022-11-10T12:01:01.692Z,33.55
2022-11-10T12:04:40.953Z,33.17
2022-11-10T12:08:14.171Z,33.87
2022-11-10T12:11:54.467Z,33.72
2022-11-10T12:15:29.004Z,34.30
2022-11-10T12:18:58.504Z,33.90
2022-11-10T12:22:34.845Z,35.05
2022-11-10T12:26:05.722Z,35.50
2022-11-10T12:29:34.383Z,36.15
2022-11-10T12:33:03.520Z,35.47
2022-11-10T12:36:28.839Z,34.95
2022-11-10T12:39:57.727Z,36.45
2022-11-10T12:43:34.918Z,36.10
2022-11-10T12:47:01.951Z,37.60
2022-11-10T12:50:33.460Z,39.25
2022-11-10T12:53:55.347Z,39.25
2022-11-10T12:57:21.361Z,39.90
2022-11-10T13:00:47.061Z,40.78
2022-11-10T13:04:08.970Z,40.58
2022-11-10T13:07:30.699Z,39.88
2022-11-10T13:10:55.999Z,42.90
2022-11-10T13:14:26.075Z,40.83
2022-11-10T13:17:55.700Z,42.28
2022-11-10T13:21:18.420Z,41.10
2022-11-10T13:24:42.471Z,40.45
2022-11-10T13:28:05.549Z,40.22
2022-11-10T13:31:42.528Z,40.58
2022-11-10T13:35:38.080Z,41.25
2022-11-10T13:39:18.334Z,39.17
2022-11-10T13:42:46.030Z,40.33
2022-11-10T13:46:09.707Z,36.67
2022-11-10T13:49:54.327Z,41.03
2022-11-10T13:53:30.227Z,38.78
2022-11-10T13:57:07.923Z,35.60
2022-11-10T14:00:31.183Z,36.70
2022-11-10T14:03:57.615Z,37.28
2022-11-10T14:07:22.258Z,37.45
2022-11-10T14:10:50.938Z,36.85
2022-11-10T14:14:18.067Z,35.92
2022-11-10T14:17:45.603Z,35.67
2022-11-10T14:21:11.026Z,35.35
2022-11-10T14:24:39.191Z,35.53
2022-11-10T14:28:01.236Z,32.58
2022-11-10T14:31:25.517Z,42.92
2022-11-10T14:34:51.355Z,43.03
2022-11-10T14:38:21.854Z,36.00
2022-11-10T14:41:49.566Z,37.22
2022-11-10T14:45:18.715Z,36.03
2022-11-10T14:48:40.932Z,35.50
2022-11-10T14:52:02.865Z,39.75
2022-11-10T14:55:30.133Z,36.33
2022-11-10T14:58:55.953Z,38.83
2022-11-10T15:02:20.747Z,40.45
2022-11-10T15:05:43.290Z,39.15
2022-11-10T15:09:14.462Z,38.28
2022-11-10T15:12:41.793Z,38.58
2022-11-10T15:16:26.607Z,40.75
2022-11-10T15:19:56.124Z,42.15
2022-11-10T15:23:23.612Z,44.40
2022-11-10T15:26:45.397Z,44.38
2022-11-10T15:30:22.980Z,48.20
2022-11-10T15:33:54.118Z,50.90
2022-11-10T15:37:30.591Z,49.65
2022-11-10T15:41:07.367Z,50.97
2022-11-10T15:44:29.546Z,52.20
2022-11-10T15:47:51.352Z,49.08
2022-11-10T15:51:20.105Z,47.60
2022-11-10T15:54:46.158Z,49.25
2022-11-10T15:58:12.851Z,51.67
2022-11-10T16:01:34.890Z,50.25
2022-11-10T16:04:59.784Z,53.70
2022-11-10T16:08:24.774Z,57.03
2022-11-10T16:11:47.351Z,55.35
2022-11-10T16:15:18.992Z,53.53
2022-11-10T16:18:43.803Z,57.00
2022-11-10T16:22:06.039Z,72.05
2022-11-10T16:25:29.750Z,65.07
2022-11-10T16:28:51.724Z,65.13
2022-11-10T16:32:13.775Z,59.88
2022-11-10T16:35:35.986Z,63.38
2022-11-10T16:38:58.211Z,73.82
2022-11-10T16:42:22.853Z,64.13
2022-11-10T16:45:45.726Z,60.53
2022-11-10T16:49:16.342Z,60.35
2022-11-10T16:52:38.208Z,56.25
2022-11-10T16:56:00.398Z,96.40
2022-11-10T16:59:23.657Z,72.40
2022-11-10T17:02:51.314Z,63.15
2022-11-10T17:06:14.450Z,58.08
2022-11-10T17:09:36.771Z,59.53
2022-11-10T17:12:58.754Z,58.35
2022-11-10T17:16:28.524Z,65.60
2022-11-10T17:19:51.927Z,68.35
2022-11-10T17:23:18.477Z,55.53
2022-11-10T17:26:40.694Z,54.70
2022-11-10T17:30:02.936Z,54.83
2022-11-10T17:33:26.624Z,56.00
2022-11-10T17:36:50.961Z,52.95
2022-11-10T17:40:20.169Z,55.83
2022-11-10T17:43:45.604Z,56.63
2022-11-10T17:47:07.664Z,51.83
2022-11-10T17:50:32.872Z,49.95
2022-11-10T17:53:55.083Z,48.63
2022-11-10T17:57:17.322Z,48.67
2022-11-10T18:00:40.063Z,47.92
2022-11-10T18:04:01.745Z,47.38
2022-11-10T18:07:25.215Z,49.00
2022-11-10T18:10:49.308Z,48.70
2022-11-10T18:14:13.806Z,50.90
2022-11-10T18:17:35.353Z,47.65
2022-11-10T18:20:58.671Z,49.58
2022-11-10T18:24:23.381Z,49.10
2022-11-10T18:27:45.557Z,47.30
2022-11-10T18:31:08.155Z,47.38
2022-11-10T18:34:30.265Z,47.03
2022-11-10T18:37:52.438Z,51.45
2022-11-10T18:41:33.166Z,49.10
2022-11-10T18:44:55.019Z,53.40
2022-11-10T18:48:17.147Z,58.78
2022-11-10T18:51:39.143Z,57.80
2022-11-10T18:55:00.988Z,53.25
2022-11-10T18:58:24.019Z,51.60
2022-11-10T19:01:48.065Z,50.95
2022-11-10T19:05:10.849Z,53.88
2022-11-10T19:08:33.516Z,54.55
2022-11-10T19:11:56.039Z,54.88
2022-11-10T19:15:19.521Z,55.95
2022-11-10T19:18:42.978Z,57.63
2022-11-10T19:22:05.767Z,53.97
2022-11-10T19:25:27.741Z,54.10
2022-11-10T19:28:50.051Z,56.65
2022-11-10T19:32:13.067Z,54.53
2022-11-10T19:35:35.382Z,53.85
2022-11-10T19:38:57.956Z,52.97
2022-11-10T19:42:19.701Z,51.28
2022-11-10T19:45:42.352Z,51.67
2022-11-10T19:49:06.388Z,51.17
2022-11-10T19:52:29.165Z,51.45
2022-11-10T19:55:52.462Z,50.53
2022-11-10T19:59:18.254Z,50.08
2022-11-10T20:02:45.615Z,52.40
2022-11-10T20:06:10.860Z,52.25
2022-11-10T20:09:32.754Z,51.88
2022-11-10T20:12:54.625Z,52.83
2022-11-10T20:16:17.536Z,56.45
2022-11-10T20:19:41.109Z,54.95
2022-11-10T20:23:08.322Z,53.65
2022-11-10T20:26:30.246Z,54.22
2022-11-10T20:29:52.321Z,56.25
2022-11-10T20:33:14.670Z,56.47
2022-11-10T20:36:36.847Z,53.83
2022-11-10T20:40:02.479Z,52.60
2022-11-10T20:43:25.205Z,52.47
2022-11-10T20:46:55.374Z,53.53
2022-11-10T20:50:23.060Z,54.22
2022-11-10T20:53:46.647Z,54.10
2022-11-10T20:57:09.908Z,54.00
2022-11-10T21:00:31.912Z,52.45
2022-11-10T21:03:57.170Z,52.65
2022-11-10T21:07:19.674Z,52.78
2022-11-10T21:10:41.887Z,54.65
2022-11-10T21:14:17.552Z,54.53
2022-11-10T21:17:43.945Z,53.35
2022-11-10T21:21:19.626Z,52.67
2022-11-10T21:24:46.759Z,53.65
2022-11-10T21:28:12.093Z,52.97
2022-11-10T21:31:36.052Z,54.38
2022-11-10T21:34:58.512Z,54.28
2022-11-10T21:38:21.673Z,52.85
2022-11-10T21:41:46.158Z,55.95
2022-11-10T21:45:09.872Z,54.42
2022-11-10T21:48:33.522Z,54.72
2022-11-10T21:51:57.187Z,54.08
2022-11-10T21:55:20.216Z,52.83
2022-11-10T21:58:42.551Z,54.83
2022-11-10T22:02:05.735Z,58.80
2022-11-10T22:05:30.540Z,65.20
2022-11-10T22:08:54.407Z,60.50
2022-11-10T22:12:34.830Z,56.20
2022-11-10T22:16:13.982Z,54.15
2022-11-10T22:19:37.374Z,53.67
2022-11-10T22:23:00.774Z,52.20
2022-11-10T22:26:22.821Z,52.80
2022-11-10T22:29:46.103Z,50.33
2022-11-10T22:33:22.286Z,48.72
2022-11-10T22:36:44.656Z,48.75
2022-11-10T22:40:27.203Z,51.47
2022-11-10T22:44:02.640Z,51.35
2022-11-10T22:47:24.618Z,50.47
2022-11-10T22:50:55.507Z,50.63
2022-11-10T22:54:19.038Z,50.40
2022-11-10T22:57:42.907Z,49.50
2022-11-10T23:01:06.319Z,50.17
2022-11-10T23:04:27.991Z,49.63
2022-11-10T23:07:49.990Z,49.85
2022-11-10T23:11:13.671Z,51.55
2022-11-10T23:14:37.562Z,50.17
2022-11-10T23:18:05.290Z,49.95
2022-11-10T23:21:30.424Z,50.25
2022-11-10T23:24:57.006Z,50.65
2022-11-10T23:28:19.248Z,52.63
2022-11-10T23:31:42.477Z,51.25
2022-11-10T23:35:04.530Z,53.15
2022-11-10T23:38:26.840Z,55.22
2022-11-10T23:41:48.559Z,54.25
2022-11-10T23:45:11.714Z,53.45
2022-11-10T23:48:35.140Z,52.88
2022-11-10T23:51:57.141Z,55.20
2022-11-10T23:55:18.763Z,54.47
2022-11-10T23:58:40.908Z,55.97
